Time;durP1;ratioP1;P1;durP2;ratioP2;P2;SDS_P1;SDS_P2;PMS_P1;PMS_P2;Temp;Humidity;BMP_temperature;BMP_pressure;BME280_temperature;BME280_humidity;BME280_pressure;Samples;Min_cycle;Max_cycle;Signal;HPM_P1;HPM_P2
2023/08/04 00:03:38;;;;;;;12.13;6.87;;;14.80;99.90;;;;;;7369199;32;20118;-56
2023/08/04 00:07:42;;;;;;;12.93;7.57;;;14.80;99.90;;;;;;7378230;32;20130;-56
2023/08/04 00:11:44;;;;;;;9.52;5.90;;;14.90;99.90;;;;;;7368902;32;20632;-56
2023/08/04 00:15:46;;;;;;;14.40;5.12;;;14.90;99.90;;;;;;7371626;32;20483;-56
2023/08/04 00:19:48;;;;;;;9.75;4.35;;;14.90;99.90;;;;;;7360273;32;20298;-55
2023/08/04 00:23:57;;;;;;;12.43;4.20;;;14.90;99.90;;;;;;7364076;32;20111;-55
2023/08/04 00:27:59;;;;;;;10.27;4.43;;;15.00;99.90;;;;;;7366173;32;20202;-56
2023/08/04 00:32:00;;;;;;;6.97;3.10;;;15.00;99.90;;;;;;7370870;32;20123;-55
2023/08/04 00:36:02;;;;;;;9.07;3.22;;;14.90;99.90;;;;;;7371826;32;20137;-57
2023/08/04 00:40:05;;;;;;;10.07;3.42;;;14.90;99.90;;;;;;7360061;32;20194;-56
2023/08/04 00:44:07;;;;;;;8.68;3.50;;;14.90;99.90;;;;;;7368408;32;20118;-55
2023/08/04 00:48:09;;;;;;;13.80;3.62;;;14.90;99.90;;;;;;7369182;32;20572;-56
2023/08/04 00:52:11;;;;;;;8.40;3.28;;;14.90;99.90;;;;;;7367714;32;20175;-56
2023/08/04 00:56:13;;;;;;;6.12;3.47;;;14.90;99.90;;;;;;7361193;32;20516;-55
2023/08/04 01:00:15;;;;;;;11.12;3.47;;;14.90;99.90;;;;;;7363145;32;20213;-57
2023/08/04 01:04:19;;;;;;;12.75;3.50;;;14.90;99.90;;;;;;7366692;32;20111;-56
2023/08/04 01:08:30;;;;;;;10.68;3.40;;;14.90;99.90;;;;;;7374161;32;21128;-57
2023/08/04 01:12:42;;;;;;;10.52;3.55;;;14.90;99.90;;;;;;7374903;32;20159;-56
2023/08/04 01:16:44;;;;;;;10.73;3.55;;;14.70;99.90;;;;;;7378751;32;20228;-56
2023/08/04 01:20:46;;;;;;;11.82;3.65;;;14.70;99.90;;;;;;7381367;32;20179;-57
2023/08/04 01:24:52;;;;;;;9.90;3.20;;;14.70;99.90;;;;;;7378217;32;20126;-56
2023/08/04 01:28:54;;;;;;;11.18;4.10;;;14.70;99.90;;;;;;7369662;32;20267;-56
2023/08/04 01:32:56;;;;;;;9.98;3.83;;;14.70;99.90;;;;;;7374578;32;20289;-57
2023/08/04 01:36:58;;;;;;;9.80;3.28;;;14.60;99.90;;;;;;7379226;32;20186;-56
2023/08/04 01:40:59;;;;;;;12.75;3.50;;;14.50;99.90;;;;;;7380303;32;20572;-56
2023/08/04 01:45:01;;;;;;;9.73;3.87;;;14.60;99.90;;;;;;7375999;32;20122;-56
2023/08/04 01:49:03;;;;;;;13.65;4.22;;;14.50;99.90;;;;;;7372432;32;20115;-56
2023/08/04 01:53:05;;;;;;;11.02;3.90;;;14.60;99.90;;;;;;7380408;32;20213;-56
2023/08/04 01:57:06;;;;;;;14.25;3.87;;;14.60;99.90;;;;;;7376236;32;20130;-56
2023/08/04 02:01:08;;;;;;;13.20;4.40;;;14.60;99.90;;;;;;7379301;32;20115;-56
2023/08/04 02:05:10;;;;;;;14.80;4.28;;;14.60;99.90;;;;;;7371610;32;20532;-56
2023/08/04 02:09:13;;;;;;;16.85;4.78;;;14.50;99.90;;;;;;7365012;32;20170;-56
2023/08/04 02:13:15;;;;;;;8.05;4.32;;;14.50;99.90;;;;;;7370712;32;20221;-56
2023/08/04 02:17:18;;;;;;;14.98;4.25;;;14.50;99.90;;;;;;7372163;32;20271;-57
2023/08/04 02:21:19;;;;;;;13.90;4.53;;;14.50;99.90;;;;;;7364743;32;20123;-56
2023/08/04 02:25:21;;;;;;;14.48;4.78;;;14.40;99.90;;;;;;7366775;32;20206;-57
2023/08/04 02:29:23;;;;;;;15.15;4.37;;;14.40;99.90;;;;;;7364532;32;20110;-57
2023/08/04 02:33:24;;;;;;;12.07;4.47;;;14.30;99.90;;;;;;7370118;32;20200;-56
2023/08/04 02:37:27;;;;;;;6.97;3.62;;;14.20;99.90;;;;;;7368936;32;20099;-56
2023/08/04 02:41:28;;;;;;;11.18;4.22;;;14.10;99.90;;;;;;7365448;32;20135;-56
2023/08/04 02:45:30;;;;;;;10.05;4.03;;;14.10;99.90;;;;;;7358953;32;20763;-57
2023/08/04 02:49:32;;;;;;;8.00;4.45;;;14.10;99.90;;;;;;7358394;32;20115;-56
2023/08/04 02:53:35;;;;;;;10.68;4.57;;;14.00;99.90;;;;;;7371079;32;20159;-56
2023/08/04 02:57:37;;;;;;;8.68;4.53;;;14.00;99.90;;;;;;7375353;32;20516;-56
2023/08/04 03:01:39;;;;;;;6.32;4.40;;;14.10;99.90;;;;;;7370901;32;20095;-56
2023/08/04 03:05:40;;;;;;;9.27;4.55;;;14.10;99.90;;;;;;7370499;32;20154;-56
2023/08/04 03:09:42;;;;;;;13.77;5.47;;;14.10;99.90;;;;;;7369423;32;20095;-56
2023/08/04 03:13:44;;;;;;;12.93;5.45;;;14.20;99.90;;;;;;7366393;32;20114;-56
2023/08/04 03:17:45;;;;;;;15.23;5.90;;;14.20;99.90;;;;;;7360912;32;20570;-56
2023/08/04 03:21:47;;;;;;;13.90;5.47;;;14.20;99.90;;;;;;7366120;32;20107;-57
2023/08/04 03:25:49;;;;;;;9.02;5.40;;;14.20;99.90;;;;;;7366393;32;20107;-56
2023/08/04 03:29:51;;;;;;;15.75;6.15;;;14.30;99.90;;;;;;7365551;32;20243;-57
2023/08/04 03:33:53;;;;;;;19.25;6.15;;;14.20;99.90;;;;;;7373355;32;20121;-57
2023/08/04 03:37:55;;;;;;;17.35;6.53;;;14.20;99.90;;;;;;7378466;32;20525;-56
2023/08/04 03:41:56;;;;;;;13.18;6.43;;;14.10;99.90;;;;;;7370479;32;20129;-56
2023/08/04 03:45:58;;;;;;;13.68;5.40;;;14.10;99.90;;;;;;7376110;32;20538;-56
2023/08/04 03:50:01;;;;;;;7.82;5.35;;;14.10;99.90;;;;;;7374990;32;20115;-56
2023/08/04 03:54:03;;;;;;;13.88;6.12;;;14.10;99.90;;;;;;7382744;32;20573;-56
2023/08/04 03:58:05;;;;;;;14.95;6.37;;;14.10;99.90;;;;;;7381649;32;20122;-56
2023/08/04 04:02:07;;;;;;;12.63;6.47;;;14.10;99.90;;;;;;7378659;32;20573;-55
2023/08/04 04:06:08;;;;;;;12.27;7.25;;;14.10;99.90;;;;;;7374129;32;20126;-55
2023/08/04 04:10:10;;;;;;;14.55;6.68;;;14.10;99.90;;;;;;7381008;32;20234;-55
2023/08/04 04:14:12;;;;;;;10.63;6.43;;;14.20;99.90;;;;;;7370364;32;20134;-56
2023/08/04 04:18:14;;;;;;;15.73;7.05;;;14.10;99.90;;;;;;7372155;32;20133;-56
2023/08/04 04:22:15;;;;;;;13.77;7.43;;;14.10;99.90;;;;;;7368017;32;20223;-56
2023/08/04 04:26:17;;;;;;;13.38;7.43;;;14.20;99.90;;;;;;7370412;32;20099;-56
2023/08/04 04:30:19;;;;;;;10.98;6.53;;;14.10;99.90;;;;;;7361581;32;20158;-55
2023/08/04 04:34:21;;;;;;;15.40;7.85;;;14.20;99.90;;;;;;7367904;32;20165;-55
2023/08/04 04:38:28;;;;;;;11.88;7.45;;;14.20;99.90;;;;;;7371841;32;20106;-56
2023/08/04 04:42:32;;;;;;;13.27;6.60;;;14.20;99.90;;;;;;7376908;32;20254;-55
2023/08/04 04:46:34;;;;;;;18.62;7.85;;;14.20;99.90;;;;;;7365788;32;20129;-56
2023/08/04 04:50:36;;;;;;;13.38;6.32;;;14.40;99.90;;;;;;7360200;32;20107;-56
2023/08/04 04:54:38;;;;;;;14.85;6.68;;;14.40;99.90;;;;;;7362023;32;20098;-56
2023/08/04 04:58:40;;;;;;;17.98;6.80;;;14.40;99.90;;;;;;7363677;32;20114;-56
2023/08/04 05:02:42;;;;;;;16.85;7.55;;;14.50;99.90;;;;;;7369045;32;20131;-56
2023/08/04 05:06:44;;;;;;;13.20;7.10;;;14.60;99.90;;;;;;7350357;32;20102;-56
2023/08/04 05:10:53;;;;;;;14.05;6.25;;;14.70;99.90;;;;;;7373023;32;20634;-55
2023/08/04 05:14:54;;;;;;;14.77;7.10;;;14.80;99.90;;;;;;7368287;32;20117;-56
2023/08/04 05:18:56;;;;;;;13.10;7.18;;;14.70;99.90;;;;;;7364761;32;20269;-56
2023/08/04 05:22:58;;;;;;;12.95;6.40;;;14.80;99.90;;;;;;7359756;32;20233;-56
2023/08/04 05:26:59;;;;;;;12.43;6.65;;;14.80;99.90;;;;;;7356475;32;20534;-56
2023/08/04 05:31:03;;;;;;;17.50;6.75;;;14.90;99.90;;;;;;7362394;32;20648;-57
2023/08/04 05:35:05;;;;;;;17.90;7.05;;;14.90;99.90;;;;;;7367192;32;20103;-57
2023/08/04 05:39:07;;;;;;;14.73;7.18;;;15.00;99.90;;;;;;7359700;32;20748;-56
2023/08/04 05:43:09;;;;;;;16.00;7.82;;;15.00;99.90;;;;;;7362705;32;20099;-57
2023/08/04 05:47:11;;;;;;;13.50;7.45;;;15.10;99.90;;;;;;7365452;32;20217;-56
2023/08/04 05:51:14;;;;;;;16.67;7.65;;;15.20;99.90;;;;;;7362735;32;20230;-56
2023/08/04 05:55:16;;;;;;;16.98;7.32;;;15.20;99.90;;;;;;7366489;32;20352;-56
2023/08/04 05:59:18;;;;;;;14.27;7.35;;;15.30;99.90;;;;;;7359013;32;20475;-56
2023/08/04 06:03:19;;;;;;;15.82;7.05;;;15.30;99.90;;;;;;7360793;32;20243;-56
2023/08/04 06:07:21;;;;;;;14.13;7.03;;;15.20;99.90;;;;;;7372024;32;20135;-56
2023/08/04 06:11:23;;;;;;;19.75;7.10;;;15.30;99.90;;;;;;7370752;32;20526;-56
2023/08/04 06:15:25;;;;;;;17.87;7.22;;;15.30;99.90;;;;;;7367734;32;20198;-56
2023/08/04 06:19:26;;;;;;;18.50;7.28;;;15.20;99.90;;;;;;7370240;32;20213;-56
2023/08/04 06:23:29;;;;;;;15.50;6.70;;;15.30;99.90;;;;;;7362969;32;20127;-56
2023/08/04 06:27:31;;;;;;;21.35;8.02;;;15.40;99.90;;;;;;7367275;32;20226;-56
2023/08/04 06:31:33;;;;;;;19.45;7.72;;;15.50;99.90;;;;;;7370437;32;20236;-57
2023/08/04 06:35:35;;;;;;;17.92;7.47;;;15.40;99.90;;;;;;7368579;32;20659;-57
2023/08/04 06:39:36;;;;;;;20.92;7.60;;;15.50;99.90;;;;;;7365780;32;20314;-56
2023/08/04 06:43:38;;;;;;;18.15;7.55;;;15.50;99.90;;;;;;7372761;32;20118;-56
2023/08/04 06:47:40;;;;;;;15.10;7.32;;;15.70;99.90;;;;;;7371318;32;20123;-56
2023/08/04 06:51:41;;;;;;;16.58;7.45;;;15.70;99.90;;;;;;7372937;32;20119;-56
2023/08/04 06:55:43;;;;;;;15.93;7.07;;;15.60;99.90;;;;;;7370859;32;20533;-56
2023/08/04 06:59:48;;;;;;;15.88;6.90;;;15.60;99.90;;;;;;7368221;32;20103;-56
2023/08/04 07:03:49;;;;;;;17.42;8.45;;;15.60;99.90;;;;;;7364580;32;20545;-56
2023/08/04 07:07:54;;;;;;;17.35;7.28;;;15.60;99.90;;;;;;7364852;32;20183;-56
2023/08/04 07:11:56;;;;;;;15.70;7.22;;;15.70;99.90;;;;;;7371146;32;20520;-56
2023/08/04 07:15:58;;;;;;;17.67;7.95;;;15.70;99.90;;;;;;7370760;32;20139;-58
2023/08/04 07:20:00;;;;;;;20.23;8.35;;;15.80;99.90;;;;;;7363022;32;20103;-56
2023/08/04 07:24:02;;;;;;;15.25;7.32;;;15.90;99.90;;;;;;7370893;32;20575;-57
2023/08/04 07:28:04;;;;;;;13.77;7.18;;;15.90;99.90;;;;;;7370040;32;20333;-56
2023/08/04 07:32:06;;;;;;;18.77;7.82;;;16.00;99.90;;;;;;7363104;32;20117;-56
2023/08/04 07:36:08;;;;;;;15.57;7.22;;;16.10;99.90;;;;;;7357031;32;20127;-56
2023/08/04 07:40:11;;;;;;;18.83;7.65;;;16.20;99.90;;;;;;7366829;32;20129;-56
2023/08/04 07:44:13;;;;;;;16.80;7.53;;;16.20;99.90;;;;;;7368090;32;20261;-56
2023/08/04 07:48:14;;;;;;;16.10;7.45;;;16.30;99.90;;;;;;7366104;32;20096;-56
2023/08/04 07:52:16;;;;;;;16.02;7.90;;;16.40;99.90;;;;;;7364290;32;20186;-57
2023/08/04 07:56:18;;;;;;;15.48;8.30;;;16.30;99.90;;;;;;7360625;32;20209;-56
2023/08/04 08:00:19;;;;;;;16.77;8.15;;;16.30;99.90;;;;;;7368522;32;20240;-57
2023/08/04 08:04:21;;;;;;;14.68;8.23;;;16.30;99.90;;;;;;7360676;32;20207;-57
2023/08/04 08:08:23;;;;;;;15.90;9.13;;;16.20;99.90;;;;;;7366670;32;20513;-57
2023/08/04 08:12:25;;;;;;;15.63;9.15;;;16.20;99.90;;;;;;7357158;32;20119;-57
2023/08/04 08:16:26;;;;;;;19.10;8.40;;;16.30;99.90;;;;;;7368543;32;20484;-57
2023/08/04 08:20:29;;;;;;;17.85;9.93;;;16.30;99.90;;;;;;7369241;32;20449;-57
2023/08/04 08:24:30;;;;;;;18.37;8.93;;;16.40;99.90;;;;;;7361936;32;20554;-57
2023/08/04 08:28:32;;;;;;;21.42;9.88;;;16.50;99.90;;;;;;7370067;32;20236;-57
2023/08/04 08:32:34;;;;;;;19.73;9.50;;;16.50;99.90;;;;;;7373087;32;20124;-57
2023/08/04 08:36:36;;;;;;;22.70;11.43;;;16.70;99.90;;;;;;7365337;32;20201;-56
2023/08/04 08:40:38;;;;;;;26.05;12.80;;;17.20;99.90;;;;;;7361343;32;20125;-56
2023/08/04 08:44:39;;;;;;;23.30;12.00;;;17.70;99.90;;;;;;7362247;32;20297;-56
2023/08/04 08:48:44;;;;;;;20.25;11.95;;;17.80;99.90;;;;;;7373378;32;20943;-56
2023/08/04 08:52:51;;;;;;;18.25;12.27;;;17.70;99.90;;;;;;7358469;32;20627;-57
2023/08/04 08:56:53;;;;;;;20.30;11.77;;;17.80;99.90;;;;;;7365243;32;20203;-56
2023/08/04 09:00:55;;;;;;;20.58;11.35;;;17.90;99.90;;;;;;7366489;32;20104;-56
2023/08/04 09:04:57;;;;;;;16.30;10.20;;;18.00;99.90;;;;;;7364453;32;20595;-56
2023/08/04 09:09:01;;;;;;;15.52;7.97;;;18.10;99.90;;;;;;7372534;32;20098;-56
2023/08/04 09:13:07;;;;;;;16.40;7.72;;;18.20;99.90;;;;;;7364846;32;20100;-56
2023/08/04 09:17:08;;;;;;;11.25;7.50;;;18.20;99.90;;;;;;7362981;32;20099;-57
2023/08/04 09:21:12;;;;;;;13.82;8.15;;;18.20;99.90;;;;;;7369173;32;20535;-57
2023/08/04 09:25:14;;;;;;;11.98;6.25;;;18.00;99.90;;;;;;7369977;32;20578;-56
2023/08/04 09:29:16;;;;;;;12.57;5.28;;;17.90;99.90;;;;;;7365796;32;20409;-56
2023/08/04 09:33:23;;;;;;;10.88;5.53;;;17.90;99.90;;;;;;7362289;32;20111;-56
2023/08/04 09:37:25;;;;;;;12.20;5.80;;;18.00;99.90;;;;;;7369056;32;20535;-56
2023/08/04 09:41:27;;;;;;;14.55;6.07;;;18.20;99.90;;;;;;7365736;32;20220;-57
2023/08/04 09:45:32;;;;;;;18.90;7.12;;;18.30;99.90;;;;;;7368744;32;20413;-56
2023/08/04 09:49:35;;;;;;;12.27;5.62;;;18.40;99.90;;;;;;7371049;32;20626;-56
2023/08/04 09:54:03;;;;;;;9.75;5.30;;;18.30;99.90;;;;;;7365914;32;20426;-56
2023/08/04 09:58:05;;;;;;;;;;;18.60;99.90;;;;;;7364417;32;20098;-57
2023/08/04 10:02:08;;;;;;;11.70;6.28;;;18.70;99.90;;;;;;7362503;32;20876;-57
2023/08/04 10:06:10;;;;;;;12.15;6.47;;;19.00;99.90;;;;;;7363954;32;20874;-56
2023/08/04 10:10:13;;;;;;;11.27;5.82;;;19.00;99.90;;;;;;7365865;32;20392;-57
2023/08/04 10:14:15;;;;;;;13.68;6.50;;;19.00;99.90;;;;;;7367328;32;20625;-58
2023/08/04 10:18:17;;;;;;;11.68;5.40;;;18.90;99.90;;;;;;7367122;32;20705;-57
2023/08/04 10:22:20;;;;;;;9.82;4.43;;;18.70;99.90;;;;;;7362576;32;20222;-57
2023/08/04 10:26:22;;;;;;;10.20;4.10;;;18.80;99.90;;;;;;7367264;32;20122;-57
2023/08/04 10:30:24;;;;;;;7.22;3.62;;;18.90;99.90;;;;;;7365967;32;20103;-57
2023/08/04 10:34:50;;;;;;;7.87;3.87;;;19.40;99.90;;;;;;7367985;32;20623;-57
2023/08/04 10:38:54;;;;;;;8.77;4.27;;;19.60;99.90;;;;;;7363608;32;20225;-57
2023/08/04 10:43:03;;;;;;;10.18;4.05;;;20.00;99.90;;;;;;7366132;32;20094;-57
2023/08/04 10:47:05;;;;;;;7.03;3.70;;;20.30;99.90;;;;;;7367382;32;20099;-57
2023/08/04 10:51:08;;;;;;;11.10;3.33;;;20.40;99.90;;;;;;7362208;32;20533;-56
2023/08/04 10:55:12;;;;;;;5.50;2.50;;;20.30;99.90;;;;;;7372045;32;20123;-57
2023/08/04 10:59:13;;;;;;;5.95;2.37;;;20.10;99.90;;;;;;7363773;32;20213;-57
2023/08/04 11:03:23;;;;;;;5.93;2.60;;;20.20;99.90;;;;;;7362620;32;20170;-57
2023/08/04 11:07:25;;;;;;;5.00;2.70;;;20.20;99.90;;;;;;7369280;32;20337;-57
2023/08/04 11:11:27;;;;;;;6.93;2.60;;;20.50;99.90;;;;;;7363777;32;20158;-57
2023/08/04 11:15:28;;;;;;;6.00;2.58;;;21.10;99.90;;;;;;7368635;32;20155;-57
2023/08/04 11:19:32;;;;;;;5.70;2.80;;;21.30;99.90;;;;;;7368396;32;20207;-57
2023/08/04 11:23:34;;;;;;;5.57;2.30;;;21.60;99.90;;;;;;7363787;32;20122;-57
2023/08/04 11:27:35;;;;;;;4.57;2.30;;;22.20;99.90;;;;;;7360173;32;20164;-57
2023/08/04 11:31:37;;;;;;;4.62;2.00;;;22.40;99.90;;;;;;7366853;32;20206;-62
2023/08/04 11:35:39;;;;;;;4.25;2.08;;;22.90;99.90;;;;;;7365499;32;20520;-58
2023/08/04 11:39:42;;;;;;;6.80;2.60;;;22.80;99.90;;;;;;7366458;32;20125;-58
2023/08/04 11:43:44;;;;;;;6.62;2.33;;;22.40;99.90;;;;;;7369506;32;20525;-57
2023/08/04 11:47:46;;;;;;;5.87;2.47;;;21.70;99.90;;;;;;7369029;32;20506;-59
2023/08/04 11:51:49;;;;;;;10.70;2.85;;;21.20;99.90;;;;;;7370576;32;20217;-62
2023/08/04 11:55:57;;;;;;;4.47;2.10;;;21.10;99.90;;;;;;7362151;32;20368;-62
2023/08/04 12:00:00;;;;;;;5.15;2.20;;;20.90;99.90;;;;;;7365584;32;20784;-62
2023/08/04 12:04:18;;;;;;;5.10;2.30;;;21.20;99.90;;;;;;7364760;32;20122;-61
2023/08/04 12:08:20;;;;;;;6.78;2.92;;;20.90;99.90;;;;;;7369687;32;20520;-63
2023/08/04 12:12:38;;;;;;;4.03;2.50;;;21.30;99.90;;;;;;7372477;32;20163;-62
2023/08/04 12:16:51;;;;;;;4.45;2.10;;;22.00;99.90;;;;;;7365009;32;20170;-65
2023/08/04 12:20:53;;;;;;;3.30;2.25;;;22.30;99.90;;;;;;7361183;32;20493;-58
2023/08/04 12:24:55;;;;;;;5.15;2.33;;;21.90;99.90;;;;;;7363875;32;20335;-57
2023/08/04 12:28:56;;;;;;;4.50;1.92;;;21.50;99.90;;;;;;7357468;32;20111;-60
2023/08/04 12:32:58;;;;;;;6.35;2.05;;;21.70;99.90;;;;;;7370303;32;20094;-57
2023/08/04 12:37:00;;;;;;;6.95;1.73;;;21.50;99.90;;;;;;7362181;32;20137;-60
2023/08/04 12:41:02;;;;;;;4.95;1.52;;;22.10;99.90;;;;;;7359329;32;20263;-59
2023/08/04 12:45:05;;;;;;;2.85;1.30;;;22.20;99.90;;;;;;7364287;32;20708;-58
2023/08/04 12:49:06;;;;;;;1.67;1.33;;;21.80;99.90;;;;;;7370736;32;20146;-57
2023/08/04 12:53:08;;;;;;;3.12;1.40;;;22.00;99.90;;;;;;7370722;32;20753;-58
2023/08/04 12:57:10;;;;;;;2.70;1.42;;;22.60;99.90;;;;;;7367720;32;20769;-58
2023/08/04 13:01:12;;;;;;;2.55;1.45;;;22.90;99.90;;;;;;7364261;32;20095;-58
2023/08/04 13:05:14;;;;;;;1.87;1.30;;;23.30;99.90;;;;;;7364802;32;20095;-58
2023/08/04 13:09:17;;;;;;;3.20;1.60;;;23.40;99.90;;;;;;7368502;32;20198;-58
2023/08/04 13:13:19;;;;;;;3.55;1.60;;;23.20;99.90;;;;;;7368092;32;20196;-58
2023/08/04 13:17:20;;;;;;;2.95;1.40;;;23.00;99.90;;;;;;7368519;32;20122;-58
2023/08/04 13:21:22;;;;;;;3.55;1.40;;;22.60;99.90;;;;;;7368001;32;20103;-59
2023/08/04 13:25:24;;;;;;;2.55;1.48;;;22.60;99.90;;;;;;7368107;32;20835;-62
2023/08/04 13:29:26;;;;;;;2.65;1.60;;;22.40;99.90;;;;;;7364483;32;20111;-58
2023/08/04 13:33:28;;;;;;;5.53;1.80;;;21.70;99.90;;;;;;7363905;32;20122;-60
2023/08/04 13:37:30;;;;;;;4.75;2.10;;;20.90;99.90;;;;;;7366996;32;20104;-61
2023/08/04 13:41:31;;;;;;;5.30;2.28;;;20.40;99.90;;;;;;7368903;32;20313;-59
2023/08/04 13:45:35;;;;;;;8.20;2.55;;;20.00;99.90;;;;;;7360146;32;20134;-60
2023/08/04 13:49:37;;;;;;;3.55;2.08;;;19.50;99.90;;;;;;7365066;32;20192;-57
2023/08/04 13:53:39;;;;;;;5.35;2.05;;;19.30;99.90;;;;;;7362170;32;20501;-58
2023/08/04 13:57:40;;;;;;;4.12;2.05;;;19.00;99.90;;;;;;7353954;32;20203;-58
2023/08/04 14:01:43;;;;;;;3.47;1.80;;;18.70;99.90;;;;;;7364423;32;20225;-59
2023/08/04 14:05:45;;;;;;;4.47;1.23;;;18.50;99.90;;;;;;7366267;32;20166;-57
2023/08/04 14:09:47;;;;;;;5.68;1.20;;;18.80;99.90;;;;;;7360228;32;20237;-57
2023/08/04 14:13:48;;;;;;;2.55;1.33;;;19.00;99.90;;;;;;7357762;32;20201;-60
2023/08/04 14:17:50;;;;;;;4.62;1.20;;;19.10;99.90;;;;;;7360030;32;20256;-58
2023/08/04 14:21:52;;;;;;;1.60;1.10;;;19.30;99.90;;;;;;7358374;32;20206;-57
2023/08/04 14:25:54;;;;;;;2.05;0.93;;;19.40;99.90;;;;;;7366380;32;20541;-58
2023/08/04 14:29:56;;;;;;;1.95;0.85;;;19.50;99.90;;;;;;7370390;32;20118;-56
2023/08/04 14:33:57;;;;;;;2.47;1.10;;;19.50;99.90;;;;;;7364786;32;20335;-59
2023/08/04 14:38:00;;;;;;;5.85;1.58;;;19.70;99.90;;;;;;7362667;32;20278;-58
2023/08/04 14:42:02;;;;;;;5.43;1.90;;;19.80;99.90;;;;;;7370647;32;20533;-61
2023/08/04 14:46:09;;;;;;;4.68;1.85;;;20.10;99.90;;;;;;7366969;32;20114;-58
2023/08/04 14:50:10;;;;;;;2.92;1.30;;;21.00;99.90;;;;;;7363576;32;20455;-57
2023/08/04 14:54:12;;;;;;;2.95;1.42;;;21.50;99.90;;;;;;7367075;32;20493;-58
2023/08/04 14:58:14;;;;;;;3.95;2.10;;;21.30;99.90;;;;;;7365698;32;20627;-58
2023/08/04 15:02:15;;;;;;;3.12;1.33;;;21.60;99.90;;;;;;7367988;32;20155;-61
2023/08/04 15:06:18;;;;;;;1.48;1.25;;;21.70;99.90;;;;;;7362963;32;20106;-57
2023/08/04 15:10:20;;;;;;;3.08;1.20;;;22.10;99.90;;;;;;7362647;32;20111;-57
2023/08/04 15:14:21;;;;;;;2.85;1.00;;;21.80;99.90;;;;;;7367869;32;20238;-58
2023/08/04 15:18:23;;;;;;;2.22;1.15;;;21.10;99.90;;;;;;7367419;32;20230;-58
2023/08/04 15:22:25;;;;;;;3.72;1.45;;;20.20;99.90;;;;;;7366201;32;20149;-59
2023/08/04 15:26:27;;;;;;;5.62;1.50;;;19.20;99.90;;;;;;7366990;32;20204;-57
2023/08/04 15:30:34;;;;;;;5.32;1.73;;;18.50;99.90;;;;;;7373072;32;20749;-58
2023/08/04 15:34:36;;;;;;;;;;;18.00;99.90;;;;;;7364264;32;20111;-58
2023/08/04 15:38:38;;;;;;;5.62;1.98;;;17.50;99.90;;;;;;7366811;32;20072;-57
2023/08/04 15:42:40;;;;;;;7.45;3.60;;;17.10;99.90;;;;;;7364504;32;20221;-57
2023/08/04 15:46:41;;;;;;;6.55;2.28;;;16.80;99.90;;;;;;7372799;32;20175;-59
2023/08/04 15:50:43;;;;;;;4.95;2.10;;;16.50;99.90;;;;;;7369084;32;20530;-60
2023/08/04 15:54:47;;;;;;;4.82;2.08;;;16.40;99.90;;;;;;7369569;32;20136;-57
2023/08/04 15:59:03;;;;;;;4.18;1.77;;;16.40;99.90;;;;;;7365211;32;20140;-58
2023/08/04 16:03:06;;;;;;;5.75;2.25;;;16.20;99.90;;;;;;7363606;32;20584;-58
2023/08/04 16:07:09;;;;;;;5.40;2.45;;;16.10;99.90;;;;;;7364992;32;20103;-57
2023/08/04 16:11:10;;;;;;;5.37;2.72;;;16.00;99.90;;;;;;7367049;32;20192;-57
2023/08/04 16:15:12;;;;;;;6.62;3.50;;;16.10;99.90;;;;;;7364453;32;20115;-57
2023/08/04 16:19:14;;;;;;;7.45;3.03;;;15.90;99.90;;;;;;7361251;32;20680;-58
2023/08/04 16:23:16;;;;;;;7.00;3.78;;;16.00;99.90;;;;;;7366293;32;20133;-57
2023/08/04 16:27:17;;;;;;;8.15;3.83;;;15.80;99.90;;;;;;7368810;32;20270;-56
2023/08/04 16:31:19;;;;;;;7.53;4.03;;;15.80;99.90;;;;;;7369393;32;20222;-58
2023/08/04 16:35:21;;;;;;;10.60;4.30;;;16.00;99.90;;;;;;7365984;32;20539;-58
2023/08/04 16:39:23;;;;;;;5.30;3.42;;;16.10;99.90;;;;;;7377036;32;20325;-58
2023/08/04 16:43:25;;;;;;;6.65;3.65;;;16.10;99.90;;;;;;7364374;32;20558;-58
2023/08/04 16:47:27;;;;;;;6.32;3.62;;;16.10;99.90;;;;;;7364390;32;20107;-58
2023/08/04 16:51:29;;;;;;;6.47;3.80;;;16.10;99.90;;;;;;7365633;32;20099;-61
2023/08/04 16:55:32;;;;;;;5.90;3.15;;;16.00;99.90;;;;;;7374640;32;20119;-59
2023/08/04 16:59:34;;;;;;;5.32;3.90;;;16.10;99.90;;;;;;7362541;32;20184;-57
2023/08/04 17:03:36;;;;;;;5.18;3.97;;;16.10;99.90;;;;;;7358763;32;21077;-57
2023/08/04 17:07:38;;;;;;;7.22;3.87;;;16.40;99.90;;;;;;7359734;32;20134;-57
2023/08/04 17:11:40;;;;;;;8.75;4.20;;;16.80;99.90;;;;;;7364496;32;20241;-57
2023/08/04 17:15:41;;;;;;;9.05;5.12;;;16.90;99.90;;;;;;7370783;32;20142;-58
2023/08/04 17:19:44;;;;;;;7.87;4.12;;;17.10;99.90;;;;;;7363883;32;20216;-59
2023/08/04 17:23:46;;;;;;;7.07;3.70;;;17.20;99.90;;;;;;7368067;32;20478;-57
2023/08/04 17:27:48;;;;;;;8.15;3.67;;;17.30;99.90;;;;;;7371333;32;20562;-57
2023/08/04 17:31:50;;;;;;;3.22;2.55;;;17.40;99.90;;;;;;7357241;32;20225;-56
2023/08/04 17:35:52;;;;;;;7.35;3.35;;;17.40;99.90;;;;;;7361021;32;20137;-57
2023/08/04 17:39:53;;;;;;;7.80;3.25;;;17.30;99.90;;;;;;7359277;32;20111;-62
2023/08/04 17:43:55;;;;;;;6.85;2.90;;;17.20;99.90;;;;;;7366317;32;20164;-57
2023/08/04 17:47:57;;;;;;;8.52;5.07;;;17.20;99.90;;;;;;7363786;32;20182;-58
2023/08/04 17:51:59;;;;;;;6.82;4.07;;;17.20;99.90;;;;;;7367286;32;20154;-58
2023/08/04 17:56:01;;;;;;;4.68;3.08;;;17.10;99.90;;;;;;7365232;32;20119;-57
2023/08/04 18:00:03;;;;;;;6.32;3.50;;;17.00;99.90;;;;;;7371549;32;20136;-58
2023/08/04 18:04:09;;;;;;;4.15;3.10;;;17.00;99.90;;;;;;7376920;32;20136;-58
2023/08/04 18:08:11;;;;;;;5.05;3.72;;;17.10;99.90;;;;;;7379025;32;20110;-58
2023/08/04 18:12:13;;;;;;;9.48;4.30;;;17.00;99.90;;;;;;7364302;32;20425;-58
2023/08/04 18:16:14;;;;;;;9.35;6.50;;;17.10;99.90;;;;;;7370211;32;20659;-58
2023/08/04 18:20:16;;;;;;;7.65;5.50;;;17.00;99.90;;;;;;7375443;32;20184;-58
2023/08/04 18:24:18;;;;;;;6.40;3.62;;;16.90;99.90;;;;;;7370882;32;20539;-57
2023/08/04 18:28:20;;;;;;;6.75;3.87;;;16.80;99.90;;;;;;7361007;32;20941;-60
2023/08/04 18:32:22;;;;;;;5.22;3.35;;;16.80;99.90;;;;;;7372141;32;20135;-57
2023/08/04 18:36:24;;;;;;;7.25;3.72;;;16.60;99.90;;;;;;7363426;32;20119;-58
2023/08/04 18:40:26;;;;;;;7.60;4.87;;;16.60;99.90;;;;;;7365572;32;20237;-58
2023/08/04 18:44:28;;;;;;;8.05;4.22;;;16.50;99.90;;;;;;7363068;32;20115;-58
2023/08/04 18:48:30;;;;;;;6.10;4.32;;;16.40;99.90;;;;;;7370288;32;20252;-58
2023/08/04 18:52:32;;;;;;;5.07;3.53;;;16.30;99.90;;;;;;7367791;32;20137;-58
2023/08/04 18:56:34;;;;;;;4.35;3.12;;;16.20;99.90;;;;;;7366570;32;20114;-58
2023/08/04 19:00:35;;;;;;;4.62;3.00;;;16.20;99.90;;;;;;7368421;32;20214;-58
2023/08/04 19:04:37;;;;;;;4.78;3.17;;;16.20;99.90;;;;;;7366180;32;20111;-57
2023/08/04 19:08:39;;;;;;;3.75;3.33;;;16.10;99.90;;;;;;7363682;32;20131;-58
2023/08/04 19:12:41;;;;;;;4.55;3.35;;;16.10;99.90;;;;;;7369012;32;20563;-58
2023/08/04 19:16:42;;;;;;;4.05;3.40;;;16.00;99.90;;;;;;7361891;32;20234;-58
2023/08/04 19:20:44;;;;;;;5.47;3.55;;;16.00;99.90;;;;;;7371474;32;20528;-58
2023/08/04 19:24:46;;;;;;;4.62;3.20;;;16.00;99.90;;;;;;7367031;32;20133;-58
2023/08/04 19:28:47;;;;;;;9.40;6.10;;;15.90;99.90;;;;;;7362674;32;20110;-56
2023/08/04 19:32:49;;;;;;;10.07;7.20;;;15.90;99.90;;;;;;7369247;32;20233;-57
2023/08/04 19:36:51;;;;;;;7.45;3.97;;;15.80;99.90;;;;;;7366213;32;20209;-57
2023/08/04 19:40:54;;;;;;;9.50;4.68;;;15.70;99.90;;;;;;7362426;32;20138;-56
2023/08/04 19:44:56;;;;;;;9.45;5.80;;;15.60;99.90;;;;;;7367734;32;20114;-57
2023/08/04 19:48:58;;;;;;;6.30;5.05;;;15.50;99.90;;;;;;7361998;32;20358;-57
2023/08/04 19:53:00;;;;;;;6.95;4.40;;;15.50;99.90;;;;;;7365551;32;20130;-57
2023/08/04 19:57:02;;;;;;;9.13;4.65;;;15.40;99.90;;;;;;7360751;32;20261;-58
2023/08/04 20:01:07;;;;;;;6.97;4.07;;;15.30;99.90;;;;;;7362026;32;20130;-57
2023/08/04 20:05:09;;;;;;;7.57;4.37;;;15.10;99.90;;;;;;7361929;32;20133;-57
2023/08/04 20:09:11;;;;;;;6.80;3.90;;;15.10;99.90;;;;;;7364373;32;20681;-57
2023/08/04 20:13:12;;;;;;;4.12;3.45;;;15.00;99.90;;;;;;7362255;32;20163;-57
2023/08/04 20:17:14;;;;;;;6.03;3.72;;;14.90;99.90;;;;;;7359142;32;20137;-56
2023/08/04 20:21:16;;;;;;;5.85;3.92;;;14.80;99.90;;;;;;7365843;32;20156;-57
2023/08/04 20:25:18;;;;;;;4.53;3.37;;;14.80;99.90;;;;;;7362302;32;20619;-56
2023/08/04 20:29:20;;;;;;;6.55;3.65;;;14.80;99.90;;;;;;7372139;32;20130;-57
2023/08/04 20:33:22;;;;;;;4.32;3.58;;;14.80;99.90;;;;;;7361253;32;20251;-56
2023/08/04 20:37:24;;;;;;;3.75;3.10;;;14.80;99.90;;;;;;7364513;32;20134;-57
2023/08/04 20:41:26;;;;;;;4.10;3.45;;;14.90;99.90;;;;;;7362812;32;20123;-56
2023/08/04 20:45:27;;;;;;;9.52;3.25;;;14.90;99.90;;;;;;7364762;32;20136;-56
2023/08/04 20:49:29;;;;;;;6.00;3.72;;;15.00;99.90;;;;;;7358319;32;20622;-55
2023/08/04 20:53:36;;;;;;;4.25;3.20;;;14.90;99.90;;;;;;7369097;32;20522;-56
2023/08/04 20:57:38;;;;;;;5.03;3.28;;;14.90;99.90;;;;;;7369614;32;20095;-56